sensor_id;sensor_type;location;lat;lon;timestamp;pressure;altitude;pressure_sealevel;temperature;humidity
10720;BME280;5411;58.386;15.560;2023-02-16T00:01:53;100768.09;;;2.94;100.00
10720;BME280;5411;58.386;15.560;2023-02-16T00:04:23;100759.50;;;2.92;100.00
10720;BME280;5411;58.386;15.560;2023-02-16T00:06:52;100759.78;;;2.89;100.00
10720;BME280;5411;58.386;15.560;2023-02-16T00:09:29;100763.25;;;2.90;100.00
10720;BME280;5411;58.386;15.560;2023-02-16T00:11:57;100763.94;;;2.92;100.00
10720;BME280;5411;58.386;15.560;2023-02-16T00:14:45;100751.25;;;2.95;100.00
10720;BME280;5411;58.386;15.560;2023-02-16T00:17:15;100745.97;;;2.95;100.00
10720;BME280;5411;58.386;15.560;2023-02-16T00:19:43;100744.84;;;2.98;100.00
10720;BME280;5411;58.386;15.560;2023-02-16T00:22:12;100741.22;;;2.99;100.00
10720;BME280;5411;58.386;15.560;2023-02-16T00:24:41;100744.72;;;2.99;100.00
10720;BME280;5411;58.386;15.560;2023-02-16T00:27:12;100742.75;;;3.01;100.00
10720;BME280;5411;58.386;15.560;2023-02-16T00:29:40;100740.13;;;3.01;100.00
10720;BME280;5411;58.386;15.560;2023-02-16T00:32:11;100740.13;;;3.01;100.00
10720;BME280;5411;58.386;15.560;2023-02-16T00:34:40;100733.16;;;3.00;100.00
10720;BME280;5411;58.386;15.560;2023-02-16T00:37:10;100729.13;;;3.06;100.00
10720;BME280;5411;58.386;15.560;2023-02-16T00:39:41;100721.34;;;3.04;100.00
10720;BME280;5411;58.386;15.560;2023-02-16T00:42:15;100725.47;;;3.07;100.00
10720;BME280;5411;58.386;15.560;2023-02-16T00:44:47;100721.19;;;3.06;100.00
10720;BME280;5411;58.386;15.560;2023-02-16T00:47:18;100717.16;;;3.02;100.00
10720;BME280;5411;58.386;15.560;2023-02-16T00:49:48;100710.34;;;2.99;100.00
10720;BME280;5411;58.386;15.560;2023-02-16T00:52:31;100710.50;;;2.98;100.00
10720;BME280;5411;58.386;15.560;2023-02-16T00:55:05;100709.38;;;3.00;100.00
10720;BME280;5411;58.386;15.560;2023-02-16T01:00:27;100700.19;;;3.04;100.00
10720;BME280;5411;58.386;15.560;2023-02-16T01:02:59;100697.56;;;3.04;100.00
10720;BME280;5411;58.386;15.560;2023-02-16T01:05:28;100682.94;;;3.00;100.00
10720;BME280;5411;58.386;15.560;2023-02-16T01:07:56;100695.63;;;2.97;100.00
10720;BME280;5411;58.386;15.560;2023-02-16T01:10:44;100679.38;;;2.92;100.00
10720;BME280;5411;58.386;15.560;2023-02-16T01:13:32;100676.75;;;2.92;100.00
10720;BME280;5411;58.386;15.560;2023-02-16T01:16:02;100675.44;;;2.96;100.00
10720;BME280;5411;58.386;15.560;2023-02-16T01:18:30;100666.56;;;2.97;100.00
10720;BME280;5411;58.386;15.560;2023-02-16T01:21:00;100667.09;;;3.00;100.00
10720;BME280;5411;58.386;15.560;2023-02-16T01:23:29;100665.16;;;3.02;100.00
10720;BME280;5411;58.386;15.560;2023-02-16T01:25:59;100672.25;;;3.02;100.00
10720;BME280;5411;58.386;15.560;2023-02-16T01:28:27;100659.03;;;3.02;100.00
10720;BME280;5411;58.386;15.560;2023-02-16T01:30:55;100649.03;;;2.96;100.00
10720;BME280;5411;58.386;15.560;2023-02-16T01:33:24;100662.78;;;2.99;100.00
10720;BME280;5411;58.386;15.560;2023-02-16T01:35:53;100651.38;;;2.99;100.00
10720;BME280;5411;58.386;15.560;2023-02-16T01:38:23;100643.88;;;2.94;100.00
10720;BME280;5411;58.386;15.560;2023-02-16T01:40:56;100636.78;;;2.95;100.00
10720;BME280;5411;58.386;15.560;2023-02-16T01:43:36;100622.91;;;2.93;100.00
10720;BME280;5411;58.386;15.560;2023-02-16T01:46:10;100627.88;;;2.96;100.00
10720;BME280;5411;58.386;15.560;2023-02-16T01:48:40;100621.63;;;2.97;100.00
10720;BME280;5411;58.386;15.560;2023-02-16T01:51:15;100614.16;;;2.92;100.00
10720;BME280;5411;58.386;15.560;2023-02-16T01:53:50;100619.97;;;2.96;100.00
10720;BME280;5411;58.386;15.560;2023-02-16T01:56:28;100625.78;;;2.99;100.00
10720;BME280;5411;58.386;15.560;2023-02-16T01:59:04;100635.25;;;3.02;100.00
10720;BME280;5411;58.386;15.560;2023-02-16T02:01:41;100628.16;;;3.02;100.00
10720;BME280;5411;58.386;15.560;2023-02-16T02:04:18;100630.78;;;3.02;100.00
10720;BME280;5411;58.386;15.560;2023-02-16T02:07:05;100634.56;;;3.00;100.00
10720;BME280;5411;58.386;15.560;2023-02-16T02:09:37;100638.72;;;3.02;100.00
10720;BME280;5411;58.386;15.560;2023-02-16T02:12:14;100629.81;;;3.03;100.00
10720;BME280;5411;58.386;15.560;2023-02-16T02:14:47;100631.75;;;3.01;100.00
10720;BME280;5411;58.386;15.560;2023-02-16T02:17:19;100632.81;;;3.08;100.00
10720;BME280;5411;58.386;15.560;2023-02-16T02:19:56;100629.91;;;3.11;100.00
10720;BME280;5411;58.386;15.560;2023-02-16T02:28:52;100625.00;;;3.16;100.00
10720;BME280;5411;58.386;15.560;2023-02-16T02:31:33;100624.41;;;3.22;100.00
10720;BME280;5411;58.386;15.560;2023-02-16T02:34:12;100621.47;;;3.26;100.00
10720;BME280;5411;58.386;15.560;2023-02-16T02:36:48;100621.16;;;3.29;100.00
10720;BME280;5411;58.386;15.560;2023-02-16T02:39:27;100618.06;;;3.33;100.00
10720;BME280;5411;58.386;15.560;2023-02-16T02:42:03;100619.06;;;3.32;100.00
10720;BME280;5411;58.386;15.560;2023-02-16T02:44:42;100603.34;;;3.31;100.00
10720;BME280;5411;58.386;15.560;2023-02-16T02:47:12;100610.13;;;3.33;100.00
10720;BME280;5411;58.386;15.560;2023-02-16T02:49:48;100602.19;;;3.33;100.00
10720;BME280;5411;58.386;15.560;2023-02-16T02:52:18;100594.25;;;3.33;100.00
10720;BME280;5411;58.386;15.560;2023-02-16T02:54:47;100582.88;;;3.33;100.00
10720;BME280;5411;58.386;15.560;2023-02-16T02:57:37;100586.03;;;3.36;100.00
10720;BME280;5411;58.386;15.560;2023-02-16T03:00:29;100578.94;;;3.37;100.00
10720;BME280;5411;58.386;15.560;2023-02-16T03:03:14;100570.56;;;3.41;100.00
10720;BME280;5411;58.386;15.560;2023-02-16T03:05:46;100573.88;;;3.43;100.00
10720;BME280;5411;58.386;15.560;2023-02-16T03:08:17;100573.88;;;3.43;100.00
10720;BME280;5411;58.386;15.560;2023-02-16T03:10:49;100565.81;;;3.45;100.00
10720;BME280;5411;58.386;15.560;2023-02-16T03:13:39;100563.16;;;3.45;100.00
10720;BME280;5411;58.386;15.560;2023-02-16T03:16:13;100557.69;;;3.46;100.00
10720;BME280;5411;58.386;15.560;2023-02-16T03:18:43;100569.50;;;3.52;100.00
10720;BME280;5411;58.386;15.560;2023-02-16T03:21:30;100551.66;;;3.54;100.00
10720;BME280;5411;58.386;15.560;2023-02-16T03:24:20;100560.13;;;3.57;100.00
10720;BME280;5411;58.386;15.560;2023-02-16T03:27:08;100564.44;;;3.58;100.00
10720;BME280;5411;58.386;15.560;2023-02-16T03:29:55;100565.47;;;3.66;100.00
10720;BME280;5411;58.386;15.560;2023-02-16T03:32:26;100552.47;;;3.72;100.00
10720;BME280;5411;58.386;15.560;2023-02-16T03:34:54;100544.06;;;3.77;100.00
10720;BME280;5411;58.386;15.560;2023-02-16T03:37:23;100542.09;;;3.79;100.00
10720;BME280;5411;58.386;15.560;2023-02-16T03:39:51;100543.44;;;3.83;100.00
10720;BME280;5411;58.386;15.560;2023-02-16T03:42:37;100541.31;;;3.86;100.00
10720;BME280;5411;58.386;15.560;2023-02-16T03:45:07;100543.66;;;3.89;100.00
10720;BME280;5411;58.386;15.560;2023-02-16T03:47:37;100534.28;;;3.95;100.00
10720;BME280;5411;58.386;15.560;2023-02-16T03:50:09;100530.47;;;3.98;100.00
10720;BME280;5411;58.386;15.560;2023-02-16T03:52:37;100525.69;;;4.01;100.00
10720;BME280;5411;58.386;15.560;2023-02-16T03:55:07;100527.03;;;4.05;100.00
10720;BME280;5411;58.386;15.560;2023-02-16T03:57:36;100534.69;;;4.08;100.00
10720;BME280;5411;58.386;15.560;2023-02-16T04:00:05;100524.78;;;4.10;100.00
10720;BME280;5411;58.386;15.560;2023-02-16T04:02:33;100526.25;;;4.13;100.00
10720;BME280;5411;58.386;15.560;2023-02-16T04:05:05;100522.63;;;4.14;100.00
10720;BME280;5411;58.386;15.560;2023-02-16T04:07:33;100518.16;;;4.14;100.00
10720;BME280;5411;58.386;15.560;2023-02-16T04:10:01;100507.56;;;4.14;100.00
10720;BME280;5411;58.386;15.560;2023-02-16T04:12:30;100508.22;;;4.16;100.00
10720;BME280;5411;58.386;15.560;2023-02-16T04:15:04;100512.53;;;4.17;100.00
10720;BME280;5411;58.386;15.560;2023-02-16T04:17:33;100498.47;;;4.17;100.00
10720;BME280;5411;58.386;15.560;2023-02-16T04:20:02;100497.19;;;4.21;100.00
10720;BME280;5411;58.386;15.560;2023-02-16T04:22:32;100494.38;;;4.22;100.00
10720;BME280;5411;58.386;15.560;2023-02-16T04:25:00;100495.06;;;4.24;100.00
10720;BME280;5411;58.386;15.560;2023-02-16T04:27:28;100491.09;;;4.28;100.00
10720;BME280;5411;58.386;15.560;2023-02-16T04:29:56;100489.78;;;4.33;100.00
10720;BME280;5411;58.386;15.560;2023-02-16T04:32:25;100492.59;;;4.31;100.00
10720;BME280;5411;58.386;15.560;2023-02-16T04:34:53;100470.41;;;4.32;100.00
10720;BME280;5411;58.386;15.560;2023-02-16T04:37:22;100487.13;;;4.33;100.00
10720;BME280;5411;58.386;15.560;2023-02-16T04:39:52;100476.53;;;4.33;100.00
10720;BME280;5411;58.386;15.560;2023-02-16T04:42:20;100477.38;;;4.33;100.00
10720;BME280;5411;58.386;15.560;2023-02-16T04:44:48;100482.50;;;4.35;100.00
10720;BME280;5411;58.386;15.560;2023-02-16T04:47:17;100475.41;;;4.35;100.00
10720;BME280;5411;58.386;15.560;2023-02-16T04:49:45;100469.13;;;4.36;100.00
10720;BME280;5411;58.386;15.560;2023-02-16T04:52:16;100467.59;;;4.34;100.00
10720;BME280;5411;58.386;15.560;2023-02-16T04:54:44;100459.50;;;4.35;100.00
10720;BME280;5411;58.386;15.560;2023-02-16T04:57:14;100464.66;;;4.37;100.00
10720;BME280;5411;58.386;15.560;2023-02-16T04:59:43;100461.00;;;4.38;100.00
10720;BME280;5411;58.386;15.560;2023-02-16T05:02:11;100461.66;;;4.40;100.00
10720;BME280;5411;58.386;15.560;2023-02-16T05:04:39;100454.72;;;4.39;100.00
10720;BME280;5411;58.386;15.560;2023-02-16T05:07:09;100452.72;;;4.41;100.00
10720;BME280;5411;58.386;15.560;2023-02-16T05:09:37;100445.44;;;4.43;100.00
10720;BME280;5411;58.386;15.560;2023-02-16T05:12:11;100448.63;;;4.46;100.00
10720;BME280;5411;58.386;15.560;2023-02-16T05:14:58;100444.81;;;4.49;100.00
10720;BME280;5411;58.386;15.560;2023-02-16T05:17:27;100447.16;;;4.52;100.00
10720;BME280;5411;58.386;15.560;2023-02-16T05:19:57;100440.69;;;4.54;100.00
10720;BME280;5411;58.386;15.560;2023-02-16T05:22:26;100444.31;;;4.53;100.00
10720;BME280;5411;58.386;15.560;2023-02-16T05:24:58;100433.91;;;4.52;100.00
10720;BME280;5411;58.386;15.560;2023-02-16T05:27:28;100435.06;;;4.49;100.00
10720;BME280;5411;58.386;15.560;2023-02-16T05:29:58;100430.06;;;4.46;100.00
10720;BME280;5411;58.386;15.560;2023-02-16T05:32:28;100430.59;;;4.50;100.00
10720;BME280;5411;58.386;15.560;2023-02-16T05:34:56;100426.44;;;4.47;100.00
10720;BME280;5411;58.386;15.560;2023-02-16T05:37:24;100428.59;;;4.52;100.00
10720;BME280;5411;58.386;15.560;2023-02-16T05:39:52;100422.63;;;4.50;100.00
10720;BME280;5411;58.386;15.560;2023-02-16T05:42:21;100422.97;;;4.55;100.00
10720;BME280;5411;58.386;15.560;2023-02-16T05:44:49;100422.81;;;4.56;100.00
10720;BME280;5411;58.386;15.560;2023-02-16T05:47:19;100416.53;;;4.57;100.00
10720;BME280;5411;58.386;15.560;2023-02-16T05:49:47;100420.81;;;4.58;100.00
10720;BME280;5411;58.386;15.560;2023-02-16T05:52:18;100422.47;;;4.59;100.00
10720;BME280;5411;58.386;15.560;2023-02-16T05:54:49;100421.66;;;4.59;100.00
10720;BME280;5411;58.386;15.560;2023-02-16T05:57:17;100421.66;;;4.59;100.00
10720;BME280;5411;58.386;15.560;2023-02-16T05:59:45;100419.16;;;4.57;100.00
10720;BME280;5411;58.386;15.560;2023-02-16T06:02:14;100413.19;;;4.55;100.00
10720;BME280;5411;58.386;15.560;2023-02-16T06:04:43;100398.44;;;4.53;100.00
10720;BME280;5411;58.386;15.560;2023-02-16T06:07:12;100404.25;;;4.48;100.00
10720;BME280;5411;58.386;15.560;2023-02-16T06:09:40;100412.00;;;4.42;100.00
10720;BME280;5411;58.386;15.560;2023-02-16T06:12:08;100409.50;;;4.40;100.00
10720;BME280;5411;58.386;15.560;2023-02-16T06:14:37;100410.69;;;4.38;100.00
10720;BME280;5411;58.386;15.560;2023-02-16T06:17:05;100420.47;;;4.37;100.00
10720;BME280;5411;58.386;15.560;2023-02-16T06:19:33;100414.31;;;4.37;100.00
10720;BME280;5411;58.386;15.560;2023-02-16T06:22:05;100427.56;;;4.37;100.00
10720;BME280;5411;58.386;15.560;2023-02-16T06:24:33;100426.59;;;4.38;100.00
10720;BME280;5411;58.386;15.560;2023-02-16T06:27:03;100428.88;;;4.41;100.00
10720;BME280;5411;58.386;15.560;2023-02-16T06:29:31;100421.63;;;4.43;100.00
10720;BME280;5411;58.386;15.560;2023-02-16T06:32:00;100424.94;;;4.45;100.00
10720;BME280;5411;58.386;15.560;2023-02-16T06:34:28;100419.63;;;4.45;100.00
10720;BME280;5411;58.386;15.560;2023-02-16T06:36:57;100422.44;;;4.43;100.00
10720;BME280;5411;58.386;15.560;2023-02-16T06:39:26;100421.63;;;4.43;100.00
10720;BME280;5411;58.386;15.560;2023-02-16T06:41:55;100417.97;;;4.44;100.00
10720;BME280;5411;58.386;15.560;2023-02-16T06:44:23;100427.44;;;4.46;100.00
10720;BME280;5411;58.386;15.560;2023-02-16T06:46:52;100429.25;;;4.46;100.00
10720;BME280;5411;58.386;15.560;2023-02-16T06:49:20;100435.06;;;4.49;100.00
10720;BME280;5411;58.386;15.560;2023-02-16T06:51:53;100432.72;;;4.46;100.00
10720;BME280;5411;58.386;15.560;2023-02-16T06:54:22;100445.66;;;4.49;100.00
10720;BME280;5411;58.386;15.560;2023-02-16T06:56:51;100442.47;;;4.46;100.00
10720;BME280;5411;58.386;15.560;2023-02-16T06:59:20;100442.47;;;4.46;100.00
10720;BME280;5411;58.386;15.560;2023-02-16T07:01:48;100441.81;;;4.44;100.00
10720;BME280;5411;58.386;15.560;2023-02-16T07:04:16;100435.34;;;4.38;100.00
10720;BME280;5411;58.386;15.560;2023-02-16T07:06:44;100440.81;;;4.37;100.00
10720;BME280;5411;58.386;15.560;2023-02-16T07:09:15;100440.13;;;4.35;100.00
10720;BME280;5411;58.386;15.560;2023-02-16T07:11:44;100446.44;;;4.34;100.00
10720;BME280;5411;58.386;15.560;2023-02-16T07:14:14;100441.28;;;4.32;100.00
10720;BME280;5411;58.386;15.560;2023-02-16T07:16:42;100440.78;;;4.28;100.00
10720;BME280;5411;58.386;15.560;2023-02-16T07:19:11;100436.97;;;4.31;100.00
10720;BME280;5411;58.386;15.560;2023-02-16T07:21:39;100435.50;;;4.37;100.00
10720;BME280;5411;58.386;15.560;2023-02-16T07:24:07;100442.13;;;4.41;100.00
10720;BME280;5411;58.386;15.560;2023-02-16T07:26:35;100435.22;;;4.48;100.00
10720;BME280;5411;58.386;15.560;2023-02-16T07:29:05;100429.44;;;4.52;100.00
10720;BME280;5411;58.386;15.560;2023-02-16T07:31:35;100440.19;;;4.59;100.00
10720;BME280;5411;58.386;15.560;2023-02-16T07:34:03;100433.59;;;4.63;100.00
10720;BME280;5411;58.386;15.560;2023-02-16T07:36:31;100434.06;;;4.66;100.00
10720;BME280;5411;58.386;15.560;2023-02-16T07:39:00;100433.91;;;4.68;100.00
10720;BME280;5411;58.386;15.560;2023-02-16T07:41:28;100431.94;;;4.70;100.00
10720;BME280;5411;58.386;15.560;2023-02-16T07:43:56;100431.09;;;4.70;100.00
10720;BME280;5411;58.386;15.560;2023-02-16T07:46:25;100424.00;;;4.70;100.00
10720;BME280;5411;58.386;15.560;2023-02-16T07:48:58;100437.06;;;4.72;100.00
10720;BME280;5411;58.386;15.560;2023-02-16T07:51:27;100435.25;;;4.72;100.00
10720;BME280;5411;58.386;15.560;2023-02-16T07:53:59;100437.75;;;4.74;100.00
10720;BME280;5411;58.386;15.560;2023-02-16T07:56:30;100432.44;;;4.74;100.00
10720;BME280;5411;58.386;15.560;2023-02-16T07:59:00;100435.56;;;4.69;100.00
10720;BME280;5411;58.386;15.560;2023-02-16T08:01:29;100440.22;;;4.67;100.00
10720;BME280;5411;58.386;15.560;2023-02-16T08:04:02;100437.75;;;4.65;100.00
10720;BME280;5411;58.386;15.560;2023-02-16T08:06:30;100438.06;;;4.62;100.00
10720;BME280;5411;58.386;15.560;2023-02-16T08:08:58;100437.06;;;4.63;100.00
10720;BME280;5411;58.386;15.560;2023-02-16T08:11:26;100433.25;;;4.66;100.00
10720;BME280;5411;58.386;15.560;2023-02-16T08:13:57;100431.44;;;4.66;100.00
10720;BME280;5411;58.386;15.560;2023-02-16T08:16:26;100429.44;;;4.69;100.00
10720;BME280;5411;58.386;15.560;2023-02-16T08:18:57;100409.91;;;4.70;100.00
10720;BME280;5411;58.386;15.560;2023-02-16T08:21:29;100414.22;;;4.71;100.00
10720;BME280;5411;58.386;15.560;2023-02-16T08:23:59;100412.06;;;4.74;100.00
10720;BME280;5411;58.386;15.560;2023-02-16T08:26:34;100419.34;;;4.72;100.00
10720;BME280;5411;58.386;15.560;2023-02-16T08:29:05;100412.56;;;4.70;100.00
10720;BME280;5411;58.386;15.560;2023-02-16T08:31:36;100415.56;;;4.75;100.00
10720;BME280;5411;58.386;15.560;2023-02-16T08:34:05;100409.44;;;4.74;100.00
10720;BME280;5411;58.386;15.560;2023-02-16T08:36:36;100407.59;;;4.75;100.00
10720;BME280;5411;58.386;15.560;2023-02-16T08:39:07;100409.78;;;4.79;100.00
10720;BME280;5411;58.386;15.560;2023-02-16T08:41:37;100397.50;;;4.86;100.00
10720;BME280;5411;58.386;15.560;2023-02-16T08:44:07;100387.56;;;4.88;100.00
10720;BME280;5411;58.386;15.560;2023-02-16T08:46:37;100384.91;;;4.96;100.00
10720;BME280;5411;58.386;15.560;2023-02-16T08:49:07;100391.56;;;5.00;100.00
10720;BME280;5411;58.386;15.560;2023-02-16T08:51:40;100387.72;;;5.11;100.00
10720;BME280;5411;58.386;15.560;2023-02-16T08:54:14;100385.88;;;5.20;100.00
10720;BME280;5411;58.386;15.560;2023-02-16T08:56:43;100386.38;;;5.23;100.00
10720;BME280;5411;58.386;15.560;2023-02-16T08:59:17;100383.53;;;5.33;100.00
10720;BME280;5411;58.386;15.560;2023-02-16T09:01:54;100385.22;;;5.34;100.00
10720;BME280;5411;58.386;15.560;2023-02-16T09:04:22;100391.69;;;5.31;100.00
10720;BME280;5411;58.386;15.560;2023-02-16T09:06:52;100383.25;;;5.28;100.00
10720;BME280;5411;58.386;15.560;2023-02-16T09:09:21;100379.59;;;5.29;100.00
10720;BME280;5411;58.386;15.560;2023-02-16T09:11:50;100372.31;;;5.31;100.00
10720;BME280;5411;58.386;15.560;2023-02-16T09:14:18;100382.75;;;5.32;100.00
10720;BME280;5411;58.386;15.560;2023-02-16T09:16:47;100384.75;;;5.30;100.00
10720;BME280;5411;58.386;15.560;2023-02-16T09:19:18;100388.22;;;5.31;100.00
10720;BME280;5411;58.386;15.560;2023-02-16T09:21:48;100381.41;;;5.28;100.00
10720;BME280;5411;58.386;15.560;2023-02-16T09:24:19;100386.72;;;5.28;100.00
10720;BME280;5411;58.386;15.560;2023-02-16T09:26:47;100379.09;;;5.25;100.00
10720;BME280;5411;58.386;15.560;2023-02-16T09:29:16;100372.97;;;5.25;100.00
10720;BME280;5411;58.386;15.560;2023-02-16T09:31:44;100383.25;;;5.28;100.00
10720;BME280;5411;58.386;15.560;2023-02-16T09:34:15;100367.31;;;5.28;100.00
10720;BME280;5411;58.386;15.560;2023-02-16T09:36:45;100366.34;;;5.29;100.00
10720;BME280;5411;58.386;15.560;2023-02-16T09:39:14;100362.66;;;5.38;100.00
10720;BME280;5411;58.386;15.560;2023-02-16T09:42:03;100364.97;;;5.41;100.00
10720;BME280;5411;58.386;15.560;2023-02-16T09:44:43;100355.34;;;5.48;100.00
10720;BME280;5411;58.386;15.560;2023-02-16T09:47:20;100359.31;;;5.52;100.00
10720;BME280;5411;58.386;15.560;2023-02-16T09:49:50;100355.31;;;5.56;100.00
10720;BME280;5411;58.386;15.560;2023-02-16T09:52:25;100352.97;;;5.61;100.00
10720;BME280;5411;58.386;15.560;2023-02-16T09:54:59;100369.38;;;5.65;100.00
10720;BME280;5411;58.386;15.560;2023-02-16T09:57:39;100368.06;;;5.69;100.00
10720;BME280;5411;58.386;15.560;2023-02-16T10:00:19;100364.03;;;5.73;100.00
10720;BME280;5411;58.386;15.560;2023-02-16T10:02:54;100377.31;;;5.73;100.00
10720;BME280;5411;58.386;15.560;2023-02-16T10:05:30;100376.97;;;5.76;100.00
10720;BME280;5411;58.386;15.560;2023-02-16T10:08:02;100360.22;;;5.84;100.00
10720;BME280;5411;58.386;15.560;2023-02-16T10:10:39;100362.50;;;5.95;100.00
10720;BME280;5411;58.386;15.560;2023-02-16T10:13:17;100355.63;;;6.08;100.00
10720;BME280;5411;58.386;15.560;2023-02-16T10:15:47;100365.34;;;6.24;100.00
10720;BME280;5411;58.386;15.560;2023-02-16T10:18:23;100360.31;;;6.29;100.00
10720;BME280;5411;58.386;15.560;2023-02-16T10:20:54;100357.63;;;6.37;100.00
10720;BME280;5411;58.386;15.560;2023-02-16T10:23:33;100355.75;;;6.46;100.00
10720;BME280;5411;58.386;15.560;2023-02-16T10:26:11;100356.06;;;6.51;100.00
10720;BME280;5411;58.386;15.560;2023-02-16T10:28:45;100355.41;;;6.49;100.00
10720;BME280;5411;58.386;15.560;2023-02-16T10:31:19;100356.22;;;6.50;100.00
10720;BME280;5411;58.386;15.560;2023-02-16T10:34:00;100367.22;;;6.47;100.00
10720;BME280;5411;58.386;15.560;2023-02-16T10:36:46;100358.63;;;6.36;100.00
10720;BME280;5411;58.386;15.560;2023-02-16T10:39:23;100356.97;;;6.35;100.00
10720;BME280;5411;58.386;15.560;2023-02-16T10:41:59;100358.66;;;6.28;100.00
10720;BME280;5411;58.386;15.560;2023-02-16T10:44:34;100357.00;;;6.27;100.00
10720;BME280;5411;58.386;15.560;2023-02-16T10:47:21;100358.56;;;6.22;100.00
10720;BME280;5411;58.386;15.560;2023-02-16T10:49:56;100353.41;;;6.20;100.00
10720;BME280;5411;58.386;15.560;2023-02-16T10:52:31;100345.56;;;6.27;100.00
10720;BME280;5411;58.386;15.560;2023-02-16T10:55:01;100352.34;;;6.29;100.00
10720;BME280;5411;58.386;15.560;2023-02-16T10:57:31;100339.06;;;6.29;100.00
10720;BME280;5411;58.386;15.560;2023-02-16T11:00:04;100343.03;;;6.33;100.00
10720;BME280;5411;58.386;15.560;2023-02-16T11:02:37;100339.38;;;6.34;100.00
10720;BME280;5411;58.386;15.560;2023-02-16T11:08:11;100361.63;;;6.33;100.00
10720;BME280;5411;58.386;15.560;2023-02-16T11:10:43;100356.16;;;6.35;100.00
10720;BME280;5411;58.386;15.560;2023-02-16T11:13:27;100361.41;;;6.43;100.00
10720;BME280;5411;58.386;15.560;2023-02-16T11:16:00;100349.44;;;6.47;100.00
10720;BME280;5411;58.386;15.560;2023-02-16T11:18:35;100357.88;;;6.51;100.00
10720;BME280;5411;58.386;15.560;2023-02-16T11:21:06;100354.75;;;6.47;100.00
10720;BME280;5411;58.386;15.560;2023-02-16T11:23:37;100345.63;;;6.41;100.00
10720;BME280;5411;58.386;15.560;2023-02-16T11:26:20;100357.63;;;6.37;100.00
10720;BME280;5411;58.386;15.560;2023-02-16T11:28:51;100350.66;;;6.36;100.00
10720;BME280;5411;58.386;15.560;2023-02-16T11:31:26;100357.31;;;6.32;100.00
10720;BME280;5411;58.386;15.560;2023-02-16T11:34:00;100369.13;;;6.30;100.00
10720;BME280;5411;58.386;15.560;2023-02-16T11:36:33;100369.84;;;6.24;100.00
10720;BME280;5411;58.386;15.560;2023-02-16T11:39:05;100363.22;;;6.20;100.00
10720;BME280;5411;58.386;15.560;2023-02-16T11:41:36;100363.28;;;6.12;100.00
10720;BME280;5411;58.386;15.560;2023-02-16T11:44:22;100359.63;;;6.04;100.00
10720;BME280;5411;58.386;15.560;2023-02-16T11:46:55;100355.50;;;6.02;100.00
10720;BME280;5411;58.386;15.560;2023-02-16T11:49:32;100352.00;;;6.01;100.00
10720;BME280;5411;58.386;15.560;2023-02-16T11:52:18;100355.16;;;6.05;100.00
10720;BME280;5411;58.386;15.560;2023-02-16T11:54:48;100351.16;;;6.09;100.00
10720;BME280;5411;58.386;15.560;2023-02-16T11:57:22;100346.31;;;6.13;100.00
10720;BME280;5411;58.386;15.560;2023-02-16T11:59:51;100343.09;;;6.25;100.00
10720;BME280;5411;58.386;15.560;2023-02-16T12:05:37;100331.94;;;6.53;100.00
10720;BME280;5411;58.386;15.560;2023-02-16T12:08:23;100335.38;;;6.61;100.00
10720;BME280;5411;58.386;15.560;2023-02-16T12:11:04;100333.66;;;6.68;100.00
10720;BME280;5411;58.386;15.560;2023-02-16T12:13:44;100334.78;;;6.74;100.00
10720;BME280;5411;58.386;15.560;2023-02-16T12:16:25;100333.59;;;6.76;100.00
10720;BME280;5411;58.386;15.560;2023-02-16T12:19:10;100334.59;;;6.75;100.00
10720;BME280;5411;58.386;15.560;2023-02-16T12:21:43;100321.50;;;6.74;100.00
10720;BME280;5411;58.386;15.560;2023-02-16T12:24:26;100317.69;;;6.68;100.00
10720;BME280;5411;58.386;15.560;2023-02-16T12:27:00;100314.59;;;6.65;100.00
10720;BME280;5411;58.386;15.560;2023-02-16T12:29:38;100323.75;;;6.62;100.00
10720;BME280;5411;58.386;15.560;2023-02-16T12:32:33;100319.59;;;6.60;100.00
10720;BME280;5411;58.386;15.560;2023-02-16T12:35:20;100316.63;;;6.55;100.00
10720;BME280;5411;58.386;15.560;2023-02-16T12:38:01;100313.88;;;6.48;100.00
10720;BME280;5411;58.386;15.560;2023-02-16T12:40:37;100321.84;;;6.48;100.00
10720;BME280;5411;58.386;15.560;2023-02-16T12:43:26;100327.53;;;6.45;100.00
10720;BME280;5411;58.386;15.560;2023-02-16T12:46:02;100327.69;;;6.43;100.00
10720;BME280;5411;58.386;15.560;2023-02-16T12:48:38;100316.38;;;6.50;100.00
10720;BME280;5411;58.386;15.560;2023-02-16T12:51:14;100310.06;;;6.51;100.00
10720;BME280;5411;58.386;15.560;2023-02-16T12:53:49;100304.72;;;6.51;100.00
10720;BME280;5411;58.386;15.560;2023-02-16T12:56:24;100315.81;;;6.54;100.00
10720;BME280;5411;58.386;15.560;2023-02-16T12:59:04;100312.97;;;6.56;100.00
10720;BME280;5411;58.386;15.560;2023-02-16T13:01:34;100306.50;;;6.58;100.00
10720;BME280;5411;58.386;15.560;2023-02-16T13:04:11;100309.97;;;6.59;100.00
10720;BME280;5411;58.386;15.560;2023-02-16T13:06:47;100311.28;;;6.63;100.00
10720;BME280;5411;58.386;15.560;2023-02-16T13:09:27;100304.59;;;6.67;100.00
10720;BME280;5411;58.386;15.560;2023-02-16T13:12:06;100303.56;;;6.68;100.00
10720;BME280;5411;58.386;15.560;2023-02-16T13:14:42;100301.91;;;6.67;100.00
10720;BME280;5411;58.386;15.560;2023-02-16T13:17:14;100297.09;;;6.70;100.00
10720;BME280;5411;58.386;15.560;2023-02-16T13:19:45;100302.41;;;6.70;100.00
10720;BME280;5411;58.386;15.560;2023-02-16T13:25:40;100310.72;;;6.67;100.00
10720;BME280;5411;58.386;15.560;2023-02-16T13:28:28;100313.56;;;6.66;100.00
10720;BME280;5411;58.386;15.560;2023-02-16T13:31:15;100306.72;;;6.71;100.00
10720;BME280;5411;58.386;15.560;2023-02-16T13:34:19;100299.56;;;6.72;100.00
10720;BME280;5411;58.386;15.560;2023-02-16T13:37:08;100308.19;;;6.74;100.00
10720;BME280;5411;58.386;15.560;2023-02-16T13:39:58;100309.03;;;6.74;100.00